Terminal Aerodrome Forecast
Issued by NWS

Current Version | Previous Version | Text Only | Print | Product List | Glossary On
Versions: 1 2 3 4 5 6 7 8 9 10 11 12 13 14
000
FTAK31 PAJN 291100
TAFAKT
TAF
PAKT 291127Z 2912/3012 15017G27KT 3SM RA BR SCT010 OVC015
      WS020/16030KT
     FM291500 16006KT 5SM -RA BR SCT010 OVC020
     FM291900 VRB06KT P6SM VCSH OVC025
     FM300000 VRB05KT P6SM SCT050
      AMD LTD TO CLD VIS AND WIND 2912/2915=

USA.gov is the U.S. government's official web portal to all federal, state and local government web resources and services.